Time;durP1;ratioP1;P1;durP2;ratioP2;P2;SDS_P1;SDS_P2;PMS_P1;PMS_P2;Temp;Humidity;BMP_temperature;BMP_pressure;BME280_temperature;BME280_humidity;BME280_pressure;Samples;Min_cycle;Max_cycle;Signal;HPM_P1;HPM_P2
2023/07/01 00:01:23;;;;;;;6.63;1.58;;;;;;;14.65;100.00;99592.41;4967016;28;20486;-81
2023/07/01 00:03:49;;;;;;;9.00;1.52;;;;;;;14.65;100.00;99587.09;4937530;28;20046;-81
2023/07/01 00:06:15;;;;;;;5.88;1.17;;;;;;;14.61;100.00;99596.44;4974905;28;20400;-81
2023/07/01 00:08:41;;;;;;;14.68;1.80;;;;;;;14.60;100.00;99600.13;4955918;28;20504;-81
2023/07/01 00:11:07;;;;;;;13.60;1.65;;;;;;;14.58;100.00;99597.66;4950914;28;20449;-81
2023/07/01 00:13:34;;;;;;;5.97;1.42;;;;;;;14.61;100.00;99591.13;4967748;28;20031;-81
2023/07/01 00:16:00;;;;;;;7.20;1.58;;;;;;;14.62;100.00;99576.84;4950021;28;20497;-82
2023/07/01 00:18:26;;;;;;;9.07;1.80;;;;;;;14.61;100.00;99589.31;4984803;28;20119;-80
2023/07/01 00:20:53;;;;;;;8.57;1.58;;;;;;;14.57;100.00;99596.00;4957365;28;20030;-81
2023/07/01 00:23:19;;;;;;;7.78;1.70;;;;;;;14.55;100.00;99592.72;4972559;28;20035;-80
2023/07/01 00:25:45;;;;;;;4.88;1.10;;;;;;;14.52;100.00;99593.13;4977118;28;20031;-81
2023/07/01 00:28:11;;;;;;;7.07;1.58;;;;;;;14.50;100.00;99595.97;4953497;28;20438;-81
2023/07/01 00:30:37;;;;;;;7.30;1.10;;;;;;;14.49;100.00;99590.84;4973390;28;20058;-83
2023/07/01 00:33:05;;;;;;;7.57;1.90;;;;;;;14.43;100.00;99599.59;4945163;28;20172;-80
2023/07/01 00:35:34;;;;;;;7.95;1.05;;;;;;;14.40;100.00;99584.81;4969217;28;20559;-80
2023/07/01 00:38:00;;;;;;;9.25;1.25;;;;;;;14.37;100.00;99586.03;4983668;28;20081;-81
2023/07/01 00:40:26;;;;;;;5.05;0.90;;;;;;;14.33;100.00;99583.94;4957211;28;20030;-82
2023/07/01 00:42:52;;;;;;;44.53;17.67;;;;;;;14.30;100.00;99592.31;4953256;28;20382;-80
2023/07/01 00:45:18;;;;;;;16.50;1.60;;;;;;;14.25;100.00;99595.53;4949084;28;20037;-81
2023/07/01 00:47:44;;;;;;;4.07;0.70;;;;;;;14.23;100.00;99598.38;4957092;28;20037;-81
2023/07/01 00:50:12;;;;;;;4.22;0.70;;;;;;;14.21;100.00;99602.22;4946287;29;20131;-82
2023/07/01 00:52:38;;;;;;;6.93;0.98;;;;;;;14.18;100.00;99607.91;4961723;28;20561;-80
2023/07/01 00:55:06;;;;;;;5.60;0.73;;;;;;;14.18;100.00;99602.59;4975468;28;20053;-81
2023/07/01 00:57:32;;;;;;;5.20;0.82;;;;;;;14.19;100.00;99604.25;4985134;28;20038;-82
2023/07/01 00:59:58;;;;;;;2.70;0.80;;;;;;;14.25;100.00;99601.66;4961944;28;20482;-82
2023/07/01 01:02:29;;;;;;;3.33;0.75;;;;;;;14.32;100.00;99606.19;4957779;28;20038;-80
2023/07/01 01:05:14;;;;;;;4.40;0.90;;;;;;;14.34;100.00;99606.84;4956353;28;20485;-81
2023/07/01 01:07:50;;;;;;;4.85;1.02;;;;;;;14.32;100.00;99604.38;4963744;28;20046;-79
2023/07/01 01:10:25;;;;;;;14.13;0.95;;;;;;;14.33;100.00;99607.88;4954119;28;20035;-79
2023/07/01 01:12:55;;;;;;;4.68;1.08;;;;;;;14.32;100.00;99600.88;4934557;28;20672;-81
2023/07/01 01:15:21;;;;;;;10.48;1.20;;;;;;;14.30;100.00;99609.06;4954519;28;20145;-81
2023/07/01 01:17:51;;;;;;;4.43;1.27;;;;;;;14.31;100.00;99599.25;4981572;28;20070;-80
2023/07/01 01:20:20;;;;;;;7.38;1.30;;;;;;;14.30;100.00;99603.75;4971844;28;20066;-82
2023/07/01 01:22:53;;;;;;;2.15;1.10;;;;;;;14.33;100.00;99602.56;4957540;28;20042;-81
2023/07/01 01:25:27;;;;;;;4.38;1.48;;;;;;;14.33;100.00;99608.69;4962042;28;20093;-80
2023/07/01 01:27:55;;;;;;;5.20;1.33;;;;;;;14.32;100.00;99608.88;4956502;28;20038;-81
2023/07/01 01:30:25;;;;;;;8.48;1.58;;;;;;;14.30;100.00;99605.59;4969271;28;20092;-80
2023/07/01 01:32:51;;;;;;;7.75;1.70;;;;;;;14.31;100.00;99600.09;4941763;28;20042;-81
2023/07/01 01:35:17;;;;;;;5.43;1.55;;;;;;;14.32;100.00;99608.88;4952839;28;20034;-80
2023/07/01 01:37:49;;;;;;;6.00;2.00;;;;;;;14.35;100.00;99608.50;4961747;28;20051;-81
2023/07/01 01:40:19;;;;;;;5.75;2.05;;;;;;;14.33;100.00;99608.69;4941174;28;20039;-81
2023/07/01 01:42:47;;;;;;;7.35;3.00;;;;;;;14.34;100.00;99607.69;4972144;28;20062;-80
2023/07/01 01:45:16;;;;;;;5.85;2.25;;;;;;;14.33;100.00;99607.88;4957014;28;20042;-79
2023/07/01 01:47:43;;;;;;;8.23;2.30;;;;;;;14.30;100.00;99603.75;4956574;28;20034;-81
2023/07/01 01:50:11;;;;;;;7.38;2.50;;;;;;;14.30;100.00;99606.41;4953834;28;20037;-81
2023/07/01 01:52:39;;;;;;;8.55;3.95;;;;;;;14.32;100.00;99600.88;4956041;28;20688;-80
2023/07/01 01:55:09;;;;;;;6.80;2.45;;;;;;;14.30;100.00;99603.75;4962427;28;20109;-80
2023/07/01 01:57:35;;;;;;;5.13;2.40;;;;;;;14.26;100.00;99611.28;4955730;28;20097;-80
2023/07/01 02:00:08;;;;;;;10.57;2.85;;;;;;;14.25;100.00;99608.81;4962055;28;20065;-80
2023/07/01 02:02:41;;;;;;;9.70;3.17;;;;;;;14.26;100.00;99600.66;4968443;28;20041;-79
2023/07/01 02:05:07;;;;;;;8.55;2.75;;;;;;;14.23;100.00;99598.38;4958048;28;20026;-84
2023/07/01 02:07:33;;;;;;;5.95;2.95;;;;;;;14.21;100.00;99605.72;4947007;28;20124;-81
2023/07/01 02:09:58;;;;;;;11.57;3.55;;;;;;;14.19;100.00;99604.25;4952015;28;20125;-81
2023/07/01 02:12:26;;;;;;;10.38;3.70;;;;;;;14.18;100.00;99611.41;4952389;28;20035;-81
2023/07/01 02:14:52;;;;;;;9.05;3.08;;;;;;;14.18;100.00;99615.88;4981773;28;20038;-81
2023/07/01 02:17:18;;;;;;;9.05;2.70;;;;;;;14.13;100.00;99605.81;4958323;28;20487;-81
2023/07/01 02:19:43;;;;;;;9.88;3.40;;;;;;;14.11;100.00;99613.19;4957750;28;20042;-82
2023/07/01 02:22:09;;;;;;;13.57;4.07;;;;;;;14.11;100.00;99615.84;4964180;28;20041;-81
2023/07/01 02:24:35;;;;;;;6.15;3.33;;;;;;;14.11;100.00;99615.84;4942598;28;20384;-80
2023/07/01 02:27:01;;;;;;;5.65;2.55;;;;;;;14.06;100.00;99613.75;4970875;28;20469;-81
2023/07/01 02:29:27;;;;;;;8.48;3.05;;;;;;;14.05;100.00;99611.28;4952574;28;20054;-80
2023/07/01 02:31:54;;;;;;;7.88;3.47;;;;;;;14.04;100.00;99602.47;4942466;28;20048;-81
2023/07/01 02:34:27;;;;;;;9.57;3.65;;;;;;;14.09;100.00;99610.72;4961343;28;20034;-81
2023/07/01 02:36:56;;;;;;;13.10;4.60;;;;;;;14.06;100.00;99608.44;4949291;28;20069;-81
2023/07/01 02:39:23;;;;;;;17.42;3.97;;;;;;;14.06;100.00;99607.59;4971739;28;20113;-82
2023/07/01 02:41:49;;;;;;;10.82;4.60;;;;;;;14.06;100.00;99611.09;4973240;28;20516;-81
2023/07/01 02:44:15;;;;;;;8.02;4.50;;;;;;;14.05;100.00;99600.66;4973005;28;20062;-82
2023/07/01 02:46:41;;;;;;;13.52;4.55;;;;;;;14.05;100.00;99609.41;4942324;28;20120;-81
2023/07/01 02:49:07;;;;;;;9.18;4.40;;;;;;;14.02;100.00;99621.25;4972074;28;20169;-82
2023/07/01 02:51:33;;;;;;;8.68;3.92;;;;;;;14.03;100.00;99611.44;4990301;28;20036;-81
2023/07/01 02:53:59;;;;;;;7.47;3.22;;;;;;;14.03;100.00;99608.78;4971240;28;20082;-81
2023/07/01 02:56:24;;;;;;;9.55;3.38;;;;;;;14.00;100.00;99603.84;4991003;28;20061;-80
2023/07/01 02:58:50;;;;;;;10.88;3.67;;;;;;;13.99;100.00;99616.31;4972214;28;20048;-81
2023/07/01 03:01:16;;;;;;;11.63;3.38;;;;;;;13.99;100.00;99603.03;4961975;28;20035;-82
2023/07/01 03:03:41;;;;;;;8.40;3.65;;;;;;;13.99;100.00;99605.69;4967759;28;20034;-81
2023/07/01 03:06:09;;;;;;;12.10;2.90;;;;;;;14.00;100.00;99611.81;4975164;28;20061;-82
2023/07/01 03:08:35;;;;;;;11.65;3.42;;;;;;;14.02;100.00;99615.94;4968430;28;20034;-80
2023/07/01 03:11:03;;;;;;;6.85;2.88;;;;;;;14.01;100.00;99608.97;4973840;28;20385;-82
2023/07/01 03:13:29;;;;;;;8.23;2.95;;;;;;;14.00;100.00;99615.31;4972965;28;20058;-82
2023/07/01 03:15:56;;;;;;;6.97;2.90;;;;;;;13.96;100.00;99606.06;4989690;28;20476;-81
2023/07/01 03:18:23;;;;;;;9.18;2.83;;;;;;;13.98;100.00;99614.66;4972064;28;20110;-82
2023/07/01 03:20:51;;;;;;;4.63;2.10;;;;;;;13.98;100.00;99600.56;4958062;28;20440;-82
2023/07/01 03:23:17;;;;;;;5.28;2.40;;;;;;;13.99;100.00;99594.22;4989152;28;20026;-81
2023/07/01 03:25:43;;;;;;;12.43;2.35;;;;;;;14.00;100.00;99612.66;4970635;28;20504;-81
2023/07/01 03:28:09;;;;;;;4.55;1.95;;;;;;;13.97;100.00;99607.72;4936953;28;20034;-82
2023/07/01 03:30:35;;;;;;;7.70;2.00;;;;;;;13.97;100.00;99609.53;4957747;28;20030;-82
2023/07/01 03:33:01;;;;;;;3.53;2.13;;;;;;;13.96;100.00;99602.59;4941132;28;20077;-81
2023/07/01 03:35:27;;;;;;;8.95;2.05;;;;;;;13.96;100.00;99595.44;4989366;28;20042;-82
2023/07/01 03:37:53;;;;;;;4.55;1.85;;;;;;;13.94;100.00;99601.94;4962918;28;20710;-82
2023/07/01 03:40:19;;;;;;;7.45;2.38;;;;;;;13.90;100.00;99596.19;4959110;28;20065;-80
2023/07/01 03:42:45;;;;;;;6.20;2.28;;;;;;;13.90;100.00;99598.84;4978182;28;20521;-82
2023/07/01 03:45:12;;;;;;;7.10;2.22;;;;;;;13.92;100.00;99601.31;4962118;28;20030;-82
2023/07/01 03:47:40;;;;;;;6.03;1.92;;;;;;;13.91;100.00;99594.34;4947520;28;20027;-82
2023/07/01 03:50:07;;;;;;;7.35;1.95;;;;;;;13.85;100.00;99604.72;4991062;28;20127;-81
2023/07/01 03:52:36;;;;;;;5.60;1.63;;;;;;;13.85;100.00;99609.22;4974680;28;20038;-81
2023/07/01 03:55:03;;;;;;;5.20;1.45;;;;;;;13.81;100.00;99600.78;4941337;28;20047;-81
2023/07/01 03:57:29;;;;;;;3.97;1.38;;;;;;;13.81;100.00;99605.28;4968072;28;20697;-82
2023/07/01 03:59:55;;;;;;;7.93;1.92;;;;;;;13.80;100.00;99604.47;4964146;28;20035;-81
2023/07/01 04:02:21;;;;;;;6.35;1.67;;;;;;;13.84;100.00;99605.72;4968778;28;20039;-81
2023/07/01 04:04:47;;;;;;;5.10;1.58;;;;;;;13.84;100.00;99602.25;4954978;28;20031;-80
2023/07/01 04:07:13;;;;;;;7.88;1.40;;;;;;;13.87;100.00;99610.66;4957366;28;20035;-81
2023/07/01 04:09:39;;;;;;;9.70;1.52;;;;;;;13.94;100.00;99607.25;4956748;28;20425;-82
2023/07/01 04:12:05;;;;;;;6.57;1.38;;;;;;;13.98;100.00;99604.03;4960079;28;20026;-82
2023/07/01 04:14:31;;;;;;;4.18;1.85;;;;;;;14.02;100.00;99599.16;4925933;28;20093;-82
2023/07/01 04:16:57;;;;;;;2.90;2.00;;;;;;;14.05;100.00;99590.03;4938280;28;20031;-82
2023/07/01 04:19:23;;;;;;;7.55;1.77;;;;;;;14.09;100.00;99592.09;4955954;28;20042;-83
2023/07/01 04:21:48;;;;;;;6.65;1.98;;;;;;;14.10;100.00;99596.41;4941729;28;20111;-82
2023/07/01 04:24:14;;;;;;;8.52;1.98;;;;;;;14.09;100.00;99589.44;4941281;28;20499;-82
2023/07/01 04:26:44;;;;;;;3.80;1.50;;;;;;;14.12;100.00;99596.22;4959549;28;20405;-81
2023/07/01 04:29:10;;;;;;;8.65;2.25;;;;;;;14.14;100.00;99589.69;4955162;28;20035;-81
2023/07/01 04:31:36;;;;;;;4.90;2.38;;;;;;;14.11;100.00;99595.38;4952855;28;20050;-81
2023/07/01 04:34:01;;;;;;;7.03;2.35;;;;;;;14.11;100.00;99595.38;4939897;28;20474;-80
2023/07/01 04:36:27;;;;;;;10.50;2.13;;;;;;;14.13;100.00;99597.84;4937321;28;20046;-80
2023/07/01 04:38:53;;;;;;;9.90;2.55;;;;;;;14.13;100.00;99593.38;4956802;28;20046;-81
2023/07/01 04:41:19;;;;;;;5.85;2.13;;;;;;;14.14;100.00;99596.84;4938856;28;20402;-83
2023/07/01 04:43:45;;;;;;;7.00;2.47;;;;;;;14.10;100.00;99590.25;4961088;28;20537;-81
2023/07/01 04:46:10;;;;;;;9.38;2.70;;;;;;;14.04;100.00;99596.31;4938294;28;20105;-81
2023/07/01 04:48:37;;;;;;;4.80;2.10;;;;;;;14.00;100.00;99610.00;4949639;28;20119;-80
2023/07/01 04:51:02;;;;;;;6.43;1.90;;;;;;;13.99;100.00;99605.69;4952928;28;20456;-81
2023/07/01 04:53:28;;;;;;;8.32;2.35;;;;;;;13.98;100.00;99604.03;4940522;28;20057;-80
2023/07/01 04:55:54;;;;;;;6.90;2.05;;;;;;;13.99;100.00;99599.53;4970339;28;20698;-80
2023/07/01 04:58:20;;;;;;;7.35;1.92;;;;;;;14.03;100.00;99598.16;4941338;28;20073;-80
2023/07/01 05:00:46;;;;;;;5.25;1.77;;;;;;;14.01;100.00;99601.00;4940895;28;20046;-81
2023/07/01 05:03:13;;;;;;;6.20;1.75;;;;;;;14.02;100.00;99597.34;4955183;28;20074;-81
2023/07/01 05:05:39;;;;;;;8.38;1.45;;;;;;;14.03;100.00;99603.47;4959309;28;20039;-79
2023/07/01 05:08:05;;;;;;;4.18;1.88;;;;;;;14.02;100.00;99602.66;4921097;28;20092;-80
2023/07/01 05:10:30;;;;;;;4.40;1.70;;;;;;;14.01;100.00;99605.50;4960901;28;20031;-80
2023/07/01 05:12:57;;;;;;;3.75;1.52;;;;;;;14.03;100.00;99603.47;4963448;28;20074;-82
2023/07/01 05:15:23;;;;;;;147.50;44.03;;;;;;;14.04;100.00;99601.63;4952396;28;20105;-82
2023/07/01 05:17:49;;;;;;;3.97;1.70;;;;;;;14.09;100.00;99604.56;4939719;28;20039;-82
2023/07/01 05:20:14;;;;;;;117.20;10.80;;;;;;;14.15;100.00;99606.47;4925385;28;20043;-82
2023/07/01 05:22:41;;;;;;;116.68;83.40;;;;;;;14.19;100.00;99607.72;4931101;28;20031;-82
2023/07/01 05:25:07;;;;;;;6.88;2.13;;;;;;;14.17;100.00;99599.13;4936608;28;20035;-81
2023/07/01 05:27:32;;;;;;;9.40;2.10;;;;;;;14.23;100.00;99621.47;4939712;28;20422;-82
2023/07/01 05:29:58;;;;;;;6.03;2.20;;;;;;;14.23;100.00;99603.69;4974836;28;20035;-82
2023/07/01 05:32:24;;;;;;;3.72;1.75;;;;;;;14.25;100.00;99603.50;4959676;28;20061;-83
2023/07/01 05:34:50;;;;;;;4.03;2.00;;;;;;;14.27;100.00;99618.25;4970097;28;20038;-81
2023/07/01 05:37:16;;;;;;;4.00;1.88;;;;;;;14.27;100.00;99614.75;4953916;28;20509;-81
2023/07/01 05:39:42;;;;;;;7.50;2.15;;;;;;;14.27;100.00;99620.91;4964533;28;20058;-81
2023/07/01 05:42:08;;;;;;;7.22;2.40;;;;;;;14.24;100.00;99608.00;4952873;28;20031;-81
2023/07/01 05:44:34;;;;;;;9.23;3.17;;;;;;;14.24;100.00;99617.78;4946103;28;20041;-81
2023/07/01 05:46:59;;;;;;;4.15;2.13;;;;;;;14.26;100.00;99619.25;4960864;28;20065;-81
2023/07/01 05:49:25;;;;;;;6.45;2.70;;;;;;;14.30;100.00;99611.72;4953695;28;20045;-82
2023/07/01 05:51:51;;;;;;;8.80;3.08;;;;;;;14.33;100.00;99622.00;4932650;28;20117;-82
2023/07/01 05:54:17;;;;;;;167.73;11.75;;;;;;;14.35;100.00;99619.16;4982380;28;20046;-82
2023/07/01 05:56:43;;;;;;;471.88;95.95;;;;;;;14.38;100.00;99616.09;4941352;28;20035;-82
2023/07/01 05:59:09;;;;;;;28.77;5.38;;;;;;;14.42;100.00;99620.03;4969272;28;20038;-82
2023/07/01 06:01:35;;;;;;;195.68;62.00;;;;;;;14.41;100.00;99622.88;4940119;28;20031;-81
2023/07/01 06:04:01;;;;;;;79.82;10.40;;;;;;;14.41;100.00;99631.69;4962994;28;20034;-83
2023/07/01 06:06:27;;;;;;;7.93;3.97;;;;;;;14.37;100.00;99635.72;4963335;28;20142;-81
2023/07/01 06:08:53;;;;;;;11.77;4.25;;;;;;;14.34;100.00;99625.47;4965936;28;20392;-82
2023/07/01 06:11:19;;;;;;;14.23;5.07;;;;;;;14.37;100.00;99636.53;4971474;28;20039;-83
2023/07/01 06:13:46;;;;;;;17.23;5.63;;;;;;;14.39;100.00;99645.16;4947392;28;20641;-81
2023/07/01 06:16:14;;;;;;;11.10;4.88;;;;;;;14.41;100.00;99644.97;4944988;28;20062;-82
2023/07/01 06:18:40;;;;;;;14.93;6.32;;;;;;;14.41;100.00;99646.78;4955165;28;20070;-82
2023/07/01 06:21:07;;;;;;;14.27;5.85;;;;;;;14.39;100.00;99646.97;4955827;28;20031;-82
2023/07/01 06:23:33;;;;;;;16.73;6.63;;;;;;;14.41;100.00;99644.97;4953403;28;20089;-81
2023/07/01 06:25:59;;;;;;;19.83;7.03;;;;;;;14.46;100.00;99647.88;4947265;28;20035;-83
2023/07/01 06:28:25;;;;;;;16.20;7.60;;;;;;;14.51;100.00;99648.13;4971096;28;20047;-81
2023/07/01 06:30:51;;;;;;;18.23;6.75;;;;;;;14.52;100.00;99639.13;4936892;29;20054;-81
2023/07/01 06:33:17;;;;;;;18.05;7.95;;;;;;;14.53;100.00;99650.59;4978880;28;20030;-81
2023/07/01 06:35:43;;;;;;;14.05;7.93;;;;;;;14.51;100.00;99653.44;4955038;28;20116;-83
2023/07/01 06:38:09;;;;;;;18.13;8.55;;;;;;;14.52;100.00;99633.81;4958097;28;20445;-82
2023/07/01 06:40:35;;;;;;;18.73;8.25;;;;;;;14.54;100.00;99644.25;4948145;28;20138;-81
2023/07/01 06:43:04;;;;;;;22.77;8.48;;;;;;;14.56;100.00;99644.06;4954819;28;20505;-82
2023/07/01 06:45:31;;;;;;;17.08;7.65;;;;;;;14.63;100.00;99647.63;4961599;28;20081;-81
2023/07/01 06:47:58;;;;;;;20.52;9.05;;;;;;;14.73;100.00;99641.97;4959526;28;20386;-81
2023/07/01 06:50:24;;;;;;;18.00;8.65;;;;;;;14.75;100.00;99632.78;4963570;28;20549;-82
2023/07/01 06:52:50;;;;;;;16.60;10.05;;;;;;;14.80;100.00;99642.88;4960024;28;20409;-82
2023/07/01 06:55:15;;;;;;;23.85;9.60;;;;;;;14.77;100.00;99637.91;4965418;28;20034;-81
2023/07/01 06:57:42;;;;;;;19.75;9.50;;;;;;;14.76;100.00;99623.78;4992579;28;20194;-83
2023/07/01 07:00:10;;;;;;;22.35;10.63;;;;;;;14.80;100.00;99621.59;4960203;28;20092;-80
2023/07/01 07:02:37;;;;;;;19.63;10.82;;;;;;;14.81;100.00;99620.56;4973623;28;20032;-81
2023/07/01 07:05:03;;;;;;;21.58;10.90;;;;;;;14.84;100.00;99624.69;4942189;28;20034;-82
2023/07/01 07:07:29;;;;;;;25.08;11.85;;;;;;;14.87;100.00;99622.47;4954700;28;20034;-81
2023/07/01 07:09:55;;;;;;;22.55;12.43;;;;;;;14.96;100.00;99628.47;4980558;28;20042;-82
2023/07/01 07:12:21;;;;;;;28.45;13.35;;;;;;;15.05;100.00;99623.00;4984444;28;20035;-82
2023/07/01 07:14:47;;;;;;;25.65;12.57;;;;;;;15.05;100.00;99626.47;4962674;28;20035;-83
2023/07/01 07:17:13;;;;;;;31.20;13.27;;;;;;;15.03;100.00;99631.19;4972643;28;20038;-81
2023/07/01 07:19:38;;;;;;;30.05;13.60;;;;;;;14.96;100.00;99633.78;4974476;28;20066;-82
2023/07/01 07:22:05;;;;;;;28.45;14.23;;;;;;;14.94;100.00;99641.13;4968063;28;20441;-81
2023/07/01 07:24:31;;;;;;;28.80;15.00;;;;;;;14.91;100.00;99649.50;4966635;28;20034;-80
2023/07/01 07:27:02;;;;;;;35.55;15.60;;;;;;;14.88;100.00;99637.44;4977064;28;20033;-81
2023/07/01 07:29:33;;;;;;;35.55;15.45;;;;;;;14.93;100.00;99628.03;4987149;28;20073;-83
2023/07/01 07:32:00;;;;;;;31.85;16.17;;;;;;;15.07;100.00;99637.75;4968136;28;20539;-83
2023/07/01 07:34:26;;;;;;;46.78;21.70;;;;;;;15.22;100.00;99645.66;4959395;28;20539;-84
2023/07/01 07:36:52;;;;;;;66.80;30.65;;;;;;;15.29;100.00;99644.88;4980820;28;20041;-84
2023/07/01 07:39:18;;;;;;;32.88;14.90;;;;;;;15.44;100.00;99645.56;5002915;28;20396;-82
2023/07/01 07:41:45;;;;;;;41.53;17.63;;;;;;;15.54;100.00;99657.72;4965811;28;20045;-82
2023/07/01 07:44:11;;;;;;;34.58;15.65;;;;;;;15.54;100.00;99655.03;4959769;28;20038;-85
2023/07/01 07:46:39;;;;;;;27.90;15.88;;;;;;;15.60;100.00;99657.75;4992588;28;20113;-85
2023/07/01 07:49:05;;;;;;;40.08;16.38;;;;;;;15.71;100.00;99652.88;4994932;28;20057;-84
2023/07/01 07:51:31;;;;;;;42.20;18.17;;;;;;;15.59;100.00;99644.63;4966351;28;20037;-83
2023/07/01 07:53:57;;;;;;;41.10;17.38;;;;;;;15.49;100.00;99643.16;4969772;28;20054;-84
2023/07/01 07:56:23;;;;;;;36.55;17.65;;;;;;;15.33;100.00;99652.28;4976752;28;20080;-83
2023/07/01 07:58:49;;;;;;;32.88;17.08;;;;;;;15.19;100.00;99653.19;4946827;28;20045;-81
2023/07/01 08:01:15;;;;;;;37.25;17.65;;;;;;;15.09;100.00;99643.72;4970584;28;20035;-82
2023/07/01 08:03:41;;;;;;;41.55;17.80;;;;;;;15.03;100.00;99654.31;4970075;28;20030;-83
2023/07/01 08:06:07;;;;;;;38.35;17.27;;;;;;;15.02;100.00;99647.34;4951547;28;20026;-81
2023/07/01 08:08:34;;;;;;;39.83;17.02;;;;;;;15.17;100.00;99641.91;4982580;28;20042;-81
2023/07/01 08:11:00;;;;;;;36.85;16.67;;;;;;;15.33;100.00;99638.13;4961847;28;20046;-82
2023/07/01 08:13:26;;;;;;;35.45;15.95;;;;;;;15.41;100.00;99648.63;4961523;28;20185;-83
2023/07/01 08:15:52;;;;;;;37.13;16.38;;;;;;;15.44;100.00;99647.41;4946980;28;20038;-82
2023/07/01 08:18:18;;;;;;;41.20;16.88;;;;;;;15.52;100.00;99657.91;4978322;28;20068;-83
2023/07/01 08:20:44;;;;;;;51.30;18.15;;;;;;;15.64;100.00;99658.16;4955799;28;20038;-84
2023/07/01 08:23:11;;;;;;;38.08;16.52;;;;;;;15.79;100.00;99650.03;4956619;28;20066;-83
2023/07/01 08:25:41;;;;;;;291.17;63.15;;;;;;;15.84;100.00;99657.44;4951086;28;20555;-82
2023/07/01 08:28:07;;;;;;;33.97;15.60;;;;;;;15.79;100.00;99657.19;4981029;28;20027;-81
2023/07/01 08:30:33;;;;;;;339.83;84.50;;;;;;;15.73;100.00;99666.81;4988426;28;20508;-81
2023/07/01 08:32:59;;;;;;;87.43;17.65;;;;;;;15.58;100.00;99675.75;4961495;28;20042;-84
2023/07/01 08:35:25;;;;;;;38.25;17.92;;;;;;;15.52;100.00;99671.22;4976949;28;20396;-83
2023/07/01 08:37:51;;;;;;;136.63;49.67;;;;;;;15.53;100.00;99678.19;4964678;28;20097;-83
2023/07/01 08:40:17;;;;;;;40.92;16.73;;;;;;;15.56;100.00;99677.00;4986077;28;20038;-83
2023/07/01 08:42:58;;;;;;;44.88;16.75;;;;;;;15.54;100.00;99679.00;4967420;28;20039;-83
2023/07/01 08:45:24;;;;;;;43.25;15.85;;;;;;;15.48;100.00;99677.97;4992991;28;20397;-83
2023/07/01 08:47:53;;;;;;;44.20;17.17;;;;;;;15.45;100.00;99684.50;4968393;28;20030;-84
2023/07/01 08:50:20;;;;;;;42.22;16.65;;;;;;;15.43;100.00;99681.19;4973592;28;20054;-84
2023/07/01 08:52:58;;;;;;;41.08;16.30;;;;;;;15.34;100.00;99688.53;4973074;28;20449;-82
2023/07/01 08:55:24;;;;;;;45.83;18.17;;;;;;;15.25;100.00;99687.03;4957157;28;20050;-83
2023/07/01 08:57:51;;;;;;;40.80;18.00;;;;;;;15.29;100.00;99687.47;4956392;28;20027;-83
2023/07/01 09:00:16;;;;;;;46.83;18.83;;;;;;;15.38;100.00;99687.09;4940730;28;20093;-83
2023/07/01 09:02:43;;;;;;;44.08;17.75;;;;;;;15.55;100.00;99692.13;4958051;28;20049;-83
2023/07/01 09:05:09;;;;;;;43.65;16.55;;;;;;;15.65;100.00;99686.47;4948933;28;20039;-83
2023/07/01 09:07:35;;;;;;;38.55;17.98;;;;;;;15.79;100.00;99686.50;4955679;28;20039;-82
2023/07/01 09:10:02;;;;;;;43.20;16.85;;;;;;;15.97;100.00;99686.81;4964923;28;20050;-84
2023/07/01 09:12:29;;;;;;;42.42;16.83;;;;;;;16.10;100.00;99674.59;4982587;28;20032;-83
2023/07/01 09:15:02;;;;;;;50.58;17.73;;;;;;;16.29;100.00;99682.84;4935189;28;20038;-82
2023/07/01 09:17:35;;;;;;;42.40;15.52;;;;;;;16.39;100.00;99687.81;4955953;28;20041;-85
2023/07/01 09:20:10;;;;;;;41.53;17.35;;;;;;;16.43;100.00;99683.69;4927514;28;20046;-83
2023/07/01 09:22:38;;;;;;;43.35;16.90;;;;;;;16.39;100.00;99688.59;4984447;28;20069;-82
2023/07/01 09:25:04;;;;;;;44.95;14.85;;;;;;;16.30;100.00;99685.31;4967704;28;20035;-84
2023/07/01 09:27:42;;;;;;;43.13;16.67;;;;;;;16.20;100.00;99685.69;4930342;28;20117;-83
2023/07/01 09:30:28;;;;;;;41.22;14.98;;;;;;;16.19;100.00;99673.38;4978771;28;20625;-84
2023/07/01 09:33:11;;;;;;;35.05;14.18;;;;;;;16.24;100.00;99672.78;4963526;28;20543;-81
2023/07/01 09:35:42;;;;;;;34.70;14.10;;;;;;;16.30;100.00;99681.81;4965054;28;20062;-84
2023/07/01 09:38:07;;;;;;;42.30;15.10;;;;;;;16.29;100.00;99680.19;4935757;28;20045;-82
2023/07/01 09:40:33;;;;;;;38.13;14.93;;;;;;;16.44;100.00;99680.81;4955196;28;20027;-82
2023/07/01 09:42:59;;;;;;;36.80;14.10;;;;;;;16.54;100.00;99674.28;4963030;28;20035;-83
2023/07/01 09:45:26;;;;;;;45.85;15.95;;;;;;;16.77;100.00;99684.56;4929480;28;20101;-83
2023/07/01 09:47:52;;;;;;;36.42;13.45;;;;;;;16.78;100.00;99688.06;4937945;28;20026;-82
2023/07/01 09:50:23;;;;;;;40.05;14.43;;;;;;;16.63;100.00;99677.59;4966530;28;20523;-82
2023/07/01 09:52:52;;;;;;;40.80;13.85;;;;;;;16.43;100.00;99683.69;4939030;28;20117;-83
2023/07/01 09:55:18;;;;;;;38.75;14.18;;;;;;;16.41;100.00;99694.56;4943318;28;20384;-82
2023/07/01 09:57:44;;;;;;;36.38;13.50;;;;;;;16.52;100.00;99682.47;4945872;28;20042;-82
2023/07/01 10:00:15;;;;;;;29.83;13.15;;;;;;;16.68;100.00;99667.94;4951958;28;20049;-80
2023/07/01 10:02:48;;;;;;;44.53;14.05;;;;;;;16.93;100.00;99669.19;4974621;28;20042;-82
2023/07/01 10:05:14;;;;;;;37.00;13.48;;;;;;;17.08;100.00;99664.47;4956009;28;20046;-82
2023/07/01 10:07:41;;;;;;;36.50;13.60;;;;;;;16.97;100.00;99679.25;4988928;28;20101;-82
2023/07/01 10:10:16;;;;;;;34.35;13.52;;;;;;;16.96;100.00;99671.44;4973367;28;20038;-81
2023/07/01 10:12:44;;;;;;;36.70;13.87;;;;;;;16.92;100.00;99668.34;4954945;28;20033;-84
2023/07/01 10:15:12;;;;;;;32.50;13.27;;;;;;;16.80;100.00;99675.34;4974545;28;20066;-82
2023/07/01 10:17:46;;;;;;;29.30;11.43;;;;;;;16.70;100.00;99675.72;4959974;28;20158;-81
2023/07/01 10:20:33;;;;;;;39.47;12.48;;;;;;;16.82;100.00;99667.94;4955759;28;20042;-82
2023/07/01 10:23:03;;;;;;;33.08;11.93;;;;;;;16.91;100.00;99663.22;4943657;28;20042;-84
2023/07/01 10:25:37;;;;;;;34.65;11.88;;;;;;;16.92;100.00;99670.19;4976536;28;20053;-84
2023/07/01 10:28:07;;;;;;;28.50;11.55;;;;;;;17.01;100.00;99668.94;4958444;28;20030;-82
2023/07/01 10:30:45;;;;;;;31.15;11.75;;;;;;;17.11;100.00;99668.56;4974132;28;20042;-82
2023/07/01 10:33:31;;;;;;;33.90;11.73;;;;;;;17.27;100.00;99661.16;4949522;28;20042;-80
2023/07/01 10:36:01;;;;;;;32.03;12.30;;;;;;;17.28;100.00;99657.47;4970640;28;20490;-81
2023/07/01 10:38:27;;;;;;;27.42;10.82;;;;;;;17.31;100.00;99665.06;4936791;28;20066;-81
2023/07/01 10:40:52;;;;;;;29.17;10.77;;;;;;;17.46;100.00;99670.16;4950680;28;20042;-83
2023/07/01 10:43:18;;;;;;;32.38;10.90;;;;;;;17.59;100.00;99664.78;4974191;28;20539;-83
2023/07/01 10:45:44;;;;;;;28.05;11.13;;;;;;;17.72;100.00;99663.94;4961647;28;20118;-80
2023/07/01 10:48:16;;;;;;;29.63;10.85;;;;;;;17.86;100.00;99663.88;4943503;28;20034;-82
2023/07/01 10:51:02;;;;;;;37.38;11.27;;;;;;;17.89;100.00;99670.63;4943375;28;20034;-80
2023/07/01 10:53:29;;;;;;;;;;;;;;;17.76;100.00;99677.66;4969903;28;20043;-84
2023/07/01 10:56:13;;;;;;;25.92;10.45;;;;;;;17.85;100.00;99686.28;4968819;28;20381;-84
2023/07/01 10:58:40;;;;;;;33.13;10.73;;;;;;;17.80;100.00;99678.06;4964564;28;20084;-83
2023/07/01 11:01:06;;;;;;;26.85;10.75;;;;;;;17.76;100.00;99688.38;4955628;28;20031;-82
2023/07/01 11:03:35;;;;;;;27.48;11.82;;;;;;;17.83;100.00;99688.34;4966000;28;20041;-82
2023/07/01 11:06:07;;;;;;;29.65;11.18;;;;;;;17.71;100.00;99693.53;4954485;28;20138;-82
2023/07/01 11:08:43;;;;;;;32.80;11.50;;;;;;;17.66;100.00;99686.13;4953271;28;20051;-81
2023/07/01 11:11:09;;;;;;;34.00;12.65;;;;;;;17.71;100.00;99693.53;4962046;28;20041;-82
2023/07/01 11:13:35;;;;;;;29.17;11.55;;;;;;;17.82;100.00;99684.84;4968689;28;20039;-81
2023/07/01 11:16:11;;;;;;;37.03;11.73;;;;;;;17.76;100.00;99696.38;4968531;28;20046;-82
2023/07/01 11:18:40;;;;;;;26.75;11.48;;;;;;;17.59;100.00;99688.00;4966291;28;20374;-81